地図

経路データ

SID SEASON NUMBER BASIN SUBBASIN NAME ISO_TIME NATURE LAT LON WMO_WIND WMO_PRES WMO_AGENCY TRACK_TYPE DIST2LAND LANDFALL IFLAG USA_AGENCY USA_ATCF_ID USA_LAT USA_LON USA_RECORD USA_STATUS USA_WIND USA_PRES USA_SSHS USA_R34_NE USA_R34_SE USA_R34_SW USA_R34_NW USA_R50_NE USA_R50_SE USA_R50_SW USA_R50_NW USA_R64_NE USA_R64_SE USA_R64_SW USA_R64_NW USA_POCI USA_ROCI USA_RMW USA_EYE TOKYO_LAT TOKYO_LON TOKYO_GRADE TOKYO_WIND TOKYO_PRES TOKYO_R50_DIR TOKYO_R50_LONG TOKYO_R50_SHORT TOKYO_R30_DIR TOKYO_R30_LONG TOKYO_R30_SHORT TOKYO_LAND CMA_LAT CMA_LON CMA_CAT CMA_WIND CMA_PRES HKO_LAT HKO_LON HKO_CAT HKO_WIND HKO_PRES NEWDELHI_LAT NEWDELHI_LON NEWDELHI_GRADE NEWDELHI_WIND NEWDELHI_PRES NEWDELHI_CI NEWDELHI_DP NEWDELHI_POCI REUNION_LAT REUNION_LON REUNION_TYPE REUNION_WIND REUNION_PRES REUNION_TNUM REUNION_CI REUNION_RMW REUNION_R34_NE REUNION_R34_SE REUNION_R34_SW REUNION_R34_NW REUNION_R50_NE REUNION_R50_SE REUNION_R50_SW REUNION_R50_NW REUNION_R64_NE REUNION_R64_SE REUNION_R64_SW REUNION_R64_NW BOM_LAT BOM_LON BOM_TYPE BOM_WIND BOM_PRES BOM_TNUM BOM_CI BOM_RMW BOM_R34_NE BOM_R34_SE BOM_R34_SW BOM_R34_NW BOM_R50_NE BOM_R50_SE BOM_R50_SW BOM_R50_NW BOM_R64_NE BOM_R64_SE BOM_R64_SW BOM_R64_NW BOM_ROCI BOM_POCI BOM_EYE BOM_POS_METHOD BOM_PRES_METHOD NADI_LAT NADI_LON NADI_CAT NADI_WIND NADI_PRES WELLINGTON_LAT WELLINGTON_LON WELLINGTON_WIND WELLINGTON_PRES DS824_LAT DS824_LON DS824_STAGE DS824_WIND DS824_PRES TD9636_LAT TD9636_LON TD9636_STAGE TD9636_WIND TD9636_PRES TD9635_LAT TD9635_LON TD9635_WIND TD9635_PRES TD9635_ROCI NEUMANN_LAT NEUMANN_LON NEUMANN_CLASS NEUMANN_WIND NEUMANN_PRES MLC_LAT MLC_LON MLC_CLASS MLC_WIND MLC_PRES USA_GUST BOM_GUST BOM_GUST_PER REUNION_GUST REUNION_GUST_PER USA_SEAHGT USA_SEARAD_NE USA_SEARAD_SE USA_SEARAD_SW USA_SEARAD_NW STORM_SPEED STORM_DIR
1917025S13051 1917 5 SI MM NOT_NAMED 1917-01-25 06:00:00 TS -12.5000 50.5000 main 85 31 _________OO___ -1 -12.5000 50.5000 TC 35 -12.5000 50.5000 2 11 230
1917025S13051 1917 5 SI MM NOT_NAMED 1917-01-25 09:00:00 TS -12.8640 50.0516 main 24 0 _________PP___ -1 -12.8352 50.0427 TC 35 -12.8928 50.0605 2 11 229
1917025S13051 1917 5 SI MM NOT_NAMED 1917-01-25 12:00:00 TS -13.2391 49.6131 main 0 0 _________OP___ -1 -13.2000 49.6000 TC 35 -13.2781 49.6262 2 11 228
1917025S13051 1917 5 SI MM NOT_NAMED 1917-01-25 15:00:00 TS -13.6284 49.1944 main 0 0 _________PP___ -1 -13.6074 49.1850 TC 35 -13.6494 49.2038 2 11 226
1917025S13051 1917 5 SI MM NOT_NAMED 1917-01-25 18:00:00 TS -14.0000 48.8000 main 0 0 _________OO___ -1 -14.0000 48.8000 TC 35 -14.0000 48.8000 2 10 227
1917025S13051 1917 5 SI MM NOT_NAMED 1917-01-25 21:00:00 TS -14.3172 48.4281 main 0 0 _________PP___ -1 -14.3074 48.4348 TC 35 -14.3270 48.4215 2 9 228
1917025S13051 1917 5 SI MM NOT_NAMED 1917-01-26 00:00:00 TS -14.6212 48.0873 main 0 0 _________OP___ -1 -14.6000 48.1000 TC 35 -14.6423 48.0745 2 9 225
1917025S13051 1917 5 SI MM NOT_NAMED 1917-01-26 03:00:00 TS -14.9482 47.7714 main 0 0 _________PP___ -1 -14.9350 47.7775 TC 35 -14.9615 47.7653 2 9 220
1917025S13051 1917 5 SI MM NOT_NAMED 1917-01-26 06:00:00 TS -15.3000 47.5000 main 0 0 _________OO___ -1 -15.3000 47.5000 TC 35 -15.3000 47.5000 2 9 213
1917025S13051 1917 5 SI MM NOT_NAMED 1917-01-26 09:00:00 TS -15.6813 47.2754 main 0 0 _________PP___ -1 -15.6925 47.2774 TC 35 -15.6701 47.2734 2 9 207
1917025S13051 1917 5 SI MM NOT_NAMED 1917-01-26 12:00:00 TS -16.0811 47.0948 main 0 0 _________OP___ -1 -16.1000 47.1000 TC 35 -16.0622 47.0895 2 9 202
1917025S13051 1917 5 SI MM NOT_NAMED 1917-01-26 15:00:00 TS -16.4829 46.9391 main 0 0 _________PP___ -1 -16.4925 46.9424 TC 35 -16.4733 46.9359 2 9 199
1917025S13051 1917 5 SI MM NOT_NAMED 1917-01-26 18:00:00 TS -16.9000 46.8000 main 0 0 _________OO___ -1 -16.9000 46.8000 TC 35 -16.9000 46.8000 2 9 198
1917025S13051 1917 5 SI MM NOT_NAMED 1917-01-26 21:00:00 TS -17.3472 46.6415 main 0 0 _________PP___ -1 -17.3425 46.6425 TC 35 -17.3518 46.6404 2 10 198
1917025S13051 1917 5 SI MM NOT_NAMED 1917-01-27 00:00:00 TS -17.8075 46.4989 main 0 0 _________OP___ -1 -17.8000 46.5000 TC 35 -17.8150 46.4978 2 10 195
1917025S13051 1917 5 SI MM NOT_NAMED 1917-01-27 03:00:00 TS -18.2678 46.3831 main 0 0 _________PP___ -1 -18.2650 46.3850 TC 35 -18.2706 46.3812 2 9 192
1917025S13051 1917 5 SI MM NOT_NAMED 1917-01-27 06:00:00 TS -18.7000 46.3000 main 0 0 _________OO___ -1 -18.7000 46.3000 TC 35 -18.7000 46.3000 2 8 190
1917025S13051 1917 5 SI MM NOT_NAMED 1917-01-27 09:00:00 TS -19.0759 46.2376 main 0 0 _________PP___ -1 -19.0650 46.2275 TC 35 -19.0868 46.2476 2 7 186
1917025S13051 1917 5 SI MM NOT_NAMED 1917-01-27 12:00:00 TS -19.4224 46.2162 main 0 0 _________OP___ -1 -19.4000 46.2000 TC 35 -19.4449 46.2323 2 7 179
1917025S13051 1917 5 SI MM NOT_NAMED 1917-01-27 15:00:00 TS -19.7690 46.2429 main 0 0 _________PP___ -1 -19.7575 46.2349 TC 35 -19.7805 46.2509 2 7 174
1917025S13051 1917 5 SI MM NOT_NAMED 1917-01-27 18:00:00 TS -20.1000 46.3000 main 0 0 _________OO___ -1 -20.1000 46.3000 TC 35 -20.1000 46.3000 2 7 171
1917025S13051 1917 5 SI MM NOT_NAMED 1917-01-27 21:00:00 TS -20.4251 46.3510 main 0 0 _________PP___ -1 -20.4075 46.3351 TC 35 -20.4428 46.3669 2 6 169
1917025S13051 1917 5 SI MM NOT_NAMED 1917-01-28 00:00:00 TS -20.7337 46.4311 main 0 0 _________OP___ -1 -20.7000 46.4000 TC 35 -20.7675 46.4622 2 6 162
1917025S13051 1917 5 SI MM NOT_NAMED 1917-01-28 03:00:00 TS -21.0405 46.5594 main 0 0 _________PP___ -1 -21.0225 46.5424 TC 35 -21.0584 46.5763 2 6 156
1917025S13051 1917 5 SI MM NOT_NAMED 1917-01-28 06:00:00 TS -21.3000 46.7000 main 0 0 _________OO___ -1 -21.3000 46.7000 TC 35 -21.3000 46.7000 2 5 152
1917025S13051 1917 5 SI MM NOT_NAMED 1917-01-28 09:00:00 TS -21.4797 46.8111 main 0 0 _________PP___ -1 -21.4800 46.8001 TC 35 -21.4794 46.8220 2 4 146
1917025S13051 1917 5 SI MM NOT_NAMED 1917-01-28 12:00:00 TS -21.6050 46.9251 main 0 0 _________OP___ -1 -21.6000 46.9000 TC 35 -21.6100 46.9502 2 3 134
1917025S13051 1917 5 SI MM NOT_NAMED 1917-01-28 15:00:00 TS -21.7091 47.0641 main 0 0 _________PP___ -1 -21.7075 47.0500 TC 35 -21.7106 47.0783 2 3 127
1917025S13051 1917 5 SI MM NOT_NAMED 1917-01-28 18:00:00 TS -21.8000 47.2000 main 0 0 _________OO___ -1 -21.8000 47.2000 TC 35 -21.8000 47.2000 2 2 129
1917025S13051 1917 5 SI MM NOT_NAMED 1917-01-28 21:00:00 TS -21.8479 47.2484 main 0 0 _________PP___ -1 -21.9000 47.3075 TC 35 -21.7959 47.1893 2 1 138
1917025S13051 1917 5 SI MM NOT_NAMED 1917-01-29 00:00:00 TS -21.9011 47.2948 main 0 0 _________OP___ -1 -22.0000 47.4000 TC 35 -21.8022 47.1896 2 1 139
1917025S13051 1917 5 SI MM NOT_NAMED 1917-01-29 03:00:00 TS -21.9508 47.3421 main 0 0 _________PP___ -1 -21.9943 47.3893 TC 35 -21.9074 47.2949 2 4 137
1917025S13051 1917 5 SI MM NOT_NAMED 1917-01-29 06:00:00 TS -22.2000 47.6000 main 0 0 _________OO___ -1 -22.2000 47.6000 TC 35 -22.2000 47.6000 2 13 136
1917025S13051 1917 5 SI MM NOT_NAMED 1917-01-29 09:00:00 TS -22.8456 48.2869 main 51 51 _________PP___ -1 -22.9033 48.3358 TC 35 -22.7878 48.2379 2 21 135
1917025S13051 1917 5 SI MM NOT_NAMED 1917-01-29 12:00:00 TS -23.6796 49.1918 main 156 156 _________OP___ -1 -23.8000 49.3000 TC 35 -23.5592 49.0837 2 23 135
1917025S13051 1917 5 SI MM NOT_NAMED 1917-01-29 15:00:00 TS -24.4913 50.0985 main 269 269 _________PP___ -1 -24.5571 50.1585 TC 35 -24.4255 50.0386 2 23 135
1917025S13051 1917 5 SI MM NOT_NAMED 1917-01-29 18:00:00 TS -25.3000 51.0000 main 382 382 _________OO___ -1 -25.3000 51.0000 TC 35 -25.3000 51.0000 2 22 135
1917025S13051 1917 5 SI MM NOT_NAMED 1917-01-29 21:00:00 TS -26.0691 51.8260 main 486 486 _________PP___ -1 -26.0494 51.8086 TC 35 -26.0887 51.8433 2 21 136
1917025S13051 1917 5 SI MM NOT_NAMED 1917-01-30 00:00:00 TS -26.8333 52.6338 main 585 585 _________OP___ -1 -26.8000 52.6000 TC 35 -26.8665 52.6676 2 21 137
1917025S13051 1917 5 SI MM NOT_NAMED 1917-01-30 03:00:00 TS -27.5955 53.4442 main 691 691 _________PP___ -1 -27.5800 53.4299 TC 35 -27.6110 53.4585 2 20 137
1917025S13051 1917 5 SI MM NOT_NAMED 1917-01-30 06:00:00 TS -28.3000 54.2000 main 783 783 _________OO___ -1 -28.3000 54.2000 TC 35 -28.3000 54.2000 2 18 136
1917025S13051 1917 5 SI MM NOT_NAMED 1917-01-30 09:00:00 TS -28.8771 54.8298 main 841 840 _________PP___ -1 -28.8792 54.8243 TC 35 -28.8751 54.8353 2 15 136
1917025S13051 1917 5 SI MM NOT_NAMED 1917-01-30 12:00:00 TS -29.4009 55.4125 main 893 893 _________OP___ -1 -29.4000 55.4000 TC 35 -29.4018 55.4251 2 15 135
1917025S13051 1917 5 SI MM NOT_NAMED 1917-01-30 15:00:00 TS -29.9235 56.0169 main 950 950 _________PP___ -1 -29.9192 56.0071 TC 35 -29.9279 56.0267 2 16 135
1917025S13051 1917 5 SI MM NOT_NAMED 1917-01-30 18:00:00 TS -30.5000 56.7000 main 1022 1022 _________OO___ -1 -30.5000 56.7000 TC 35 -30.5000 56.7000 2 19 134
1917025S13051 1917 5 SI MM NOT_NAMED 1917-01-30 21:00:00 TS -31.2122 57.5573 main 1112 1112 _________PP___ -1 -31.2275 57.5549 TC 35 -31.1969 57.5597 2 21 134
1917025S13051 1917 5 SI MM NOT_NAMED 1917-01-31 00:00:00 TS -31.9689 58.5001 main 1218 1218 _________OP___ -1 -32.0000 58.5000 TC 35 -31.9378 58.5003 2 22 133
1917025S13051 1917 5 SI MM NOT_NAMED 1917-01-31 03:00:00 TS -32.7034 59.4660 main 1319 1319 _________PP___ -1 -32.7224 59.4655 TC 35 -32.6844 59.4665 2 21 132
1917025S13051 1917 5 SI MM NOT_NAMED 1917-01-31 06:00:00 TS -33.4000 60.4000 main 1420 1420 _________OO___ -1 -33.4000 60.4000 TC 35 -33.4000 60.4000 2 20 132
1917025S13051 1917 5 SI MM NOT_NAMED 1917-01-31 09:00:00 TS -34.0216 61.2321 main 1510 1510 _________PP___ -1 -34.0141 61.2318 TC 35 -34.0291 61.2323 2 18 132
1917025S13051 1917 5 SI MM NOT_NAMED 1917-01-31 12:00:00 TS -34.6133 62.0090 main 1600 1595 _________OP___ -1 -34.6000 62.0000 TC 35 -34.6265 62.0179 2 17 133
1917025S13051 1917 5 SI MM NOT_NAMED 1917-01-31 15:00:00 TS -35.2051 62.7641 main 1592 1511 _________PP___ -1 -35.1994 62.7588 TC 35 -35.2108 62.7694 2 17 134
1917025S13051 1917 5 SI MM NOT_NAMED 1917-01-31 18:00:00 TS -35.8000 63.5000 main 1511 1430 _________OO___ -1 -35.8000 63.5000 TC 35 -35.8000 63.5000 2 17 135
1917025S13051 1917 5 SI MM NOT_NAMED 1917-01-31 21:00:00 TS -36.4000 64.2406 main 1430 1351 _________PP___ -1 -36.3922 64.2587 TC 35 -36.4078 64.2224 2 17 136
1917025S13051 1917 5 SI MM NOT_NAMED 1917-02-01 00:00:00 TS -37.0158 64.9717 main 1349 1273 _________OP___ -1 -37.0000 65.0000 TC 35 -37.0316 64.9434 2 17 137
1917025S13051 1917 5 SI MM NOT_NAMED 1917-02-01 03:00:00 TS -37.6527 65.6876 main 1260 1184 _________PP___ -1 -37.6407 65.7075 TC 35 -37.6647 65.6677 2 17 139
1917025S13051 1917 5 SI MM NOT_NAMED 1917-02-01 06:00:00 TS -38.3000 66.4000 main 1184 _________OO___ -1 -38.3000 66.4000 TC 35 -38.3000 66.4000 2 17 139

IBTrACS Databaseについて

本データベースは、米国NOAAが公開する1842年以降の世界の熱帯低気圧のベストトラックデータアーカイブInternational Best Track Archive for Climate Stewardship (IBTrACS)を、ウェブで閲覧しやすい形式に変換したものです。

最終更新日:2021-10-21